sensor_id;sensor_type;location;lat;lon;timestamp;pressure;altitude;pressure_sealevel;temperature;humidity
52137;BME280;69622;49.570;10.986;2023-05-27T00:02:17;99226.75;;;15.67;54.25
52137;BME280;69622;49.570;10.986;2023-05-27T00:05:18;99226.88;;;15.66;53.94
52137;BME280;69622;49.570;10.986;2023-05-27T00:08:19;99225.09;;;15.87;53.59
52137;BME280;69622;49.570;10.986;2023-05-27T00:11:21;99221.50;;;15.67;54.10
52137;BME280;69622;49.570;10.986;2023-05-27T00:14:22;99224.25;;;15.54;54.12
52137;BME280;69622;49.570;10.986;2023-05-27T00:17:25;99219.50;;;15.60;53.81
52137;BME280;69622;49.570;10.986;2023-05-27T00:20:26;99222.34;;;15.68;53.70
52137;BME280;69622;49.570;10.986;2023-05-27T00:23:28;99217.63;;;15.50;53.61
52137;BME280;69622;49.570;10.986;2023-05-27T00:26:29;99221.81;;;15.42;53.57
52137;BME280;69622;49.570;10.986;2023-05-27T00:29:31;99216.94;;;15.37;53.77
52137;BME280;69622;49.570;10.986;2023-05-27T00:32:32;99216.31;;;15.02;53.97
52137;BME280;69622;49.570;10.986;2023-05-27T00:35:33;99220.66;;;15.35;53.91
52137;BME280;69622;49.570;10.986;2023-05-27T00:38:35;99218.16;;;15.33;53.73
52137;BME280;69622;49.570;10.986;2023-05-27T00:41:36;99218.78;;;15.14;54.33
52137;BME280;69622;49.570;10.986;2023-05-27T00:44:38;99224.50;;;15.08;54.35
52137;BME280;69622;49.570;10.986;2023-05-27T00:47:40;99213.84;;;15.00;54.88
52137;BME280;69622;49.570;10.986;2023-05-27T00:50:41;99218.72;;;14.93;54.12
52137;BME280;69622;49.570;10.986;2023-05-27T00:53:43;99215.03;;;14.85;54.60
52137;BME280;69622;49.570;10.986;2023-05-27T00:56:45;99218.25;;;14.88;54.72
52137;BME280;69622;49.570;10.986;2023-05-27T00:59:47;99219.31;;;14.75;54.90
52137;BME280;69622;49.570;10.986;2023-05-27T01:02:48;99230.63;;;14.86;54.19
52137;BME280;69622;49.570;10.986;2023-05-27T01:05:52;99222.16;;;14.83;54.45
52137;BME280;69622;49.570;10.986;2023-05-27T01:08:59;99224.44;;;14.76;54.29
52137;BME280;69622;49.570;10.986;2023-05-27T01:12:07;99216.25;;;14.70;55.16
52137;BME280;69622;49.570;10.986;2023-05-27T01:15:09;99216.38;;;14.68;54.62
52137;BME280;69622;49.570;10.986;2023-05-27T01:18:12;99221.81;;;14.65;54.71
52137;BME280;69622;49.570;10.986;2023-05-27T01:21:16;99211.38;;;14.54;54.49
52137;BME280;69622;49.570;10.986;2023-05-27T01:24:19;99210.28;;;14.56;55.03
52137;BME280;69622;49.570;10.986;2023-05-27T01:27:21;99211.59;;;14.62;54.19
52137;BME280;69622;49.570;10.986;2023-05-27T01:30:26;99212.19;;;14.54;54.30
52137;BME280;69622;49.570;10.986;2023-05-27T01:33:27;99204.69;;;14.50;54.09
52137;BME280;69622;49.570;10.986;2023-05-27T01:36:33;99203.22;;;14.34;53.60
52137;BME280;69622;49.570;10.986;2023-05-27T01:39:37;99204.22;;;14.56;53.38
52137;BME280;69622;49.570;10.986;2023-05-27T01:42:40;99200.72;;;14.33;54.46
52137;BME280;69622;49.570;10.986;2023-05-27T01:45:42;99201.19;;;14.16;53.55
52137;BME280;69622;49.570;10.986;2023-05-27T01:48:44;99189.19;;;14.13;54.07
52137;BME280;69622;49.570;10.986;2023-05-27T01:51:46;99194.44;;;14.24;54.06
52137;BME280;69622;49.570;10.986;2023-05-27T01:54:48;99194.34;;;14.37;53.84
52137;BME280;69622;49.570;10.986;2023-05-27T01:57:49;99195.16;;;14.26;54.21
52137;BME280;69622;49.570;10.986;2023-05-27T02:00:50;99189.66;;;14.18;53.96
52137;BME280;69622;49.570;10.986;2023-05-27T02:03:52;99195.03;;;14.28;54.12
52137;BME280;69622;49.570;10.986;2023-05-27T02:06:53;99194.19;;;14.05;54.20
52137;BME280;69622;49.570;10.986;2023-05-27T02:09:57;99192.22;;;13.85;55.49
52137;BME280;69622;49.570;10.986;2023-05-27T02:12:59;99191.66;;;14.03;54.66
52137;BME280;69622;49.570;10.986;2023-05-27T02:16:00;99195.09;;;13.93;54.62
52137;BME280;69622;49.570;10.986;2023-05-27T02:19:02;99194.25;;;13.92;54.26
52137;BME280;69622;49.570;10.986;2023-05-27T02:22:03;99190.66;;;13.82;54.44
52137;BME280;69622;49.570;10.986;2023-05-27T02:25:05;99194.09;;;13.83;54.61
52137;BME280;69622;49.570;10.986;2023-05-27T02:28:06;99191.38;;;13.73;54.69
52137;BME280;69622;49.570;10.986;2023-05-27T02:31:08;99191.81;;;13.67;54.72
52137;BME280;69622;49.570;10.986;2023-05-27T02:34:09;99185.78;;;13.77;54.42
52137;BME280;69622;49.570;10.986;2023-05-27T02:37:11;99189.13;;;13.79;54.19
52137;BME280;69622;49.570;10.986;2023-05-27T02:40:22;99181.50;;;13.76;54.47
52137;BME280;69622;49.570;10.986;2023-05-27T02:43:24;99184.69;;;13.69;54.73
52137;BME280;69622;49.570;10.986;2023-05-27T02:46:25;99180.91;;;13.73;54.30
52137;BME280;69622;49.570;10.986;2023-05-27T02:49:27;99186.97;;;13.73;54.66
52137;BME280;69622;49.570;10.986;2023-05-27T02:52:31;99182.91;;;13.69;54.65
52137;BME280;69622;49.570;10.986;2023-05-27T02:55:32;99191.88;;;13.54;55.83
52137;BME280;69622;49.570;10.986;2023-05-27T02:58:33;99175.88;;;13.59;55.36
52137;BME280;69622;49.570;10.986;2023-05-27T03:01:35;99180.94;;;13.49;55.48
52137;BME280;69622;49.570;10.986;2023-05-27T03:04:36;99175.44;;;13.41;55.65
52137;BME280;69622;49.570;10.986;2023-05-27T03:07:38;99181.84;;;13.37;55.88
52137;BME280;69622;49.570;10.986;2023-05-27T03:10:39;99180.41;;;13.33;56.16
52137;BME280;69622;49.570;10.986;2023-05-27T03:13:40;99173.28;;;13.11;56.90
52137;BME280;69622;49.570;10.986;2023-05-27T03:16:42;99176.25;;;13.17;56.51
52137;BME280;69622;49.570;10.986;2023-05-27T03:19:43;99175.97;;;13.09;56.71
52137;BME280;69622;49.570;10.986;2023-05-27T03:22:45;99173.47;;;12.84;57.65
52137;BME280;69622;49.570;10.986;2023-05-27T03:25:46;99170.94;;;12.95;57.17
52137;BME280;69622;49.570;10.986;2023-05-27T03:28:48;99167.09;;;12.75;58.15
52137;BME280;69622;49.570;10.986;2023-05-27T03:31:49;99167.25;;;12.98;57.54
52137;BME280;69622;49.570;10.986;2023-05-27T03:34:51;99171.69;;;12.84;57.94
52137;BME280;69622;49.570;10.986;2023-05-27T03:37:52;99163.38;;;13.03;57.49
52137;BME280;69622;49.570;10.986;2023-05-27T03:40:53;99162.75;;;13.00;56.64
52137;BME280;69622;49.570;10.986;2023-05-27T03:43:55;99167.19;;;12.86;57.15
52137;BME280;69622;49.570;10.986;2023-05-27T03:46:56;99168.66;;;12.78;57.66
52137;BME280;69622;49.570;10.986;2023-05-27T03:50:00;99171.19;;;12.79;57.69
52137;BME280;69622;49.570;10.986;2023-05-27T03:53:02;99177.19;;;12.56;58.72
52137;BME280;69622;49.570;10.986;2023-05-27T03:56:03;99172.56;;;12.59;58.89
52137;BME280;69622;49.570;10.986;2023-05-27T03:59:05;99174.06;;;12.38;59.36
52137;BME280;69622;49.570;10.986;2023-05-27T04:02:07;99180.13;;;12.26;60.35
52137;BME280;69622;49.570;10.986;2023-05-27T04:05:09;99184.53;;;12.00;60.91
52137;BME280;69622;49.570;10.986;2023-05-27T04:08:10;99175.53;;;12.29;60.73
52137;BME280;69622;49.570;10.986;2023-05-27T04:11:14;99174.50;;;12.19;61.08
52137;BME280;69622;49.570;10.986;2023-05-27T04:14:15;99175.75;;;12.26;61.36
52137;BME280;69622;49.570;10.986;2023-05-27T04:17:17;99172.69;;;12.45;60.41
52137;BME280;69622;49.570;10.986;2023-05-27T04:20:18;99175.00;;;12.50;60.00
52137;BME280;69622;49.570;10.986;2023-05-27T04:23:20;99180.66;;;12.31;61.37
52137;BME280;69622;49.570;10.986;2023-05-27T04:26:21;99180.63;;;12.44;60.79
52137;BME280;69622;49.570;10.986;2023-05-27T04:29:23;99184.41;;;12.14;62.16
52137;BME280;69622;49.570;10.986;2023-05-27T04:32:24;99185.97;;;12.04;63.02
52137;BME280;69622;49.570;10.986;2023-05-27T04:35:26;99190.47;;;11.89;63.50
52137;BME280;69622;49.570;10.986;2023-05-27T04:38:27;99189.22;;;12.20;61.58
52137;BME280;69622;49.570;10.986;2023-05-27T04:41:32;99183.47;;;12.28;61.23
52137;BME280;69622;49.570;10.986;2023-05-27T04:44:33;99191.19;;;12.42;61.00
52137;BME280;69622;49.570;10.986;2023-05-27T04:47:36;99193.50;;;12.34;60.92
52137;BME280;69622;49.570;10.986;2023-05-27T04:50:42;99198.38;;;12.13;61.70
52137;BME280;69622;49.570;10.986;2023-05-27T04:53:44;99193.06;;;12.02;62.35
52137;BME280;69622;49.570;10.986;2023-05-27T04:56:45;99195.88;;;12.24;61.60
52137;BME280;69622;49.570;10.986;2023-05-27T04:59:47;99192.56;;;12.22;61.77
52137;BME280;69622;49.570;10.986;2023-05-27T05:03:19;99192.94;;;12.42;61.91
52137;BME280;69622;49.570;10.986;2023-05-27T05:06:23;99205.66;;;12.46;62.66
52137;BME280;69622;49.570;10.986;2023-05-27T05:09:25;99201.94;;;12.25;62.52
52137;BME280;69622;49.570;10.986;2023-05-27T05:12:26;99206.63;;;12.20;62.33
52137;BME280;69622;49.570;10.986;2023-05-27T05:15:28;99200.25;;;12.37;61.99
52137;BME280;69622;49.570;10.986;2023-05-27T05:18:29;99199.00;;;12.29;63.18
52137;BME280;69622;49.570;10.986;2023-05-27T05:21:30;99198.72;;;12.21;63.95
52137;BME280;69622;49.570;10.986;2023-05-27T05:24:32;99187.72;;;12.54;62.80
52137;BME280;69622;49.570;10.986;2023-05-27T05:27:33;99199.00;;;12.55;62.77
52137;BME280;69622;49.570;10.986;2023-05-27T05:30:35;99204.19;;;12.55;62.48
52137;BME280;69622;49.570;10.986;2023-05-27T05:33:36;99204.44;;;12.52;62.08
52137;BME280;69622;49.570;10.986;2023-05-27T05:36:38;99208.81;;;12.39;62.52
52137;BME280;69622;49.570;10.986;2023-05-27T05:39:40;99201.09;;;12.50;61.49
52137;BME280;69622;49.570;10.986;2023-05-27T05:42:42;99208.03;;;12.62;61.23
52137;BME280;69622;49.570;10.986;2023-05-27T05:45:43;99204.91;;;12.70;60.84
52137;BME280;69622;49.570;10.986;2023-05-27T05:48:44;99203.81;;;12.48;60.99
52137;BME280;69622;49.570;10.986;2023-05-27T05:51:46;99203.03;;;12.72;60.93
52137;BME280;69622;49.570;10.986;2023-05-27T05:54:47;99208.69;;;12.66;61.47
52137;BME280;69622;49.570;10.986;2023-05-27T05:57:49;99202.63;;;12.65;61.65
52137;BME280;69622;49.570;10.986;2023-05-27T06:00:50;99210.34;;;12.67;61.89
52137;BME280;69622;49.570;10.986;2023-05-27T06:03:52;99211.56;;;12.74;62.64
52137;BME280;69622;49.570;10.986;2023-05-27T06:06:54;99215.25;;;12.71;62.01
52137;BME280;69622;49.570;10.986;2023-05-27T06:09:58;99209.16;;;12.83;62.13
52137;BME280;69622;49.570;10.986;2023-05-27T06:12:59;99201.88;;;12.76;61.90
52137;BME280;69622;49.570;10.986;2023-05-27T06:16:01;99206.94;;;12.90;62.42
52137;BME280;69622;49.570;10.986;2023-05-27T06:19:02;99209.63;;;13.01;61.48
52137;BME280;69622;49.570;10.986;2023-05-27T06:22:04;99213.38;;;13.10;61.36
52137;BME280;69622;49.570;10.986;2023-05-27T06:25:06;99207.75;;;13.03;62.81
52137;BME280;69622;49.570;10.986;2023-05-27T06:28:08;99216.19;;;13.19;62.39
52137;BME280;69622;49.570;10.986;2023-05-27T06:31:09;99207.28;;;13.22;62.44
52137;BME280;69622;49.570;10.986;2023-05-27T06:34:12;99201.53;;;13.30;61.31
52137;BME280;69622;49.570;10.986;2023-05-27T06:37:14;99205.03;;;13.41;61.07
52137;BME280;69622;49.570;10.986;2023-05-27T06:40:15;99210.56;;;13.61;59.92
52137;BME280;69622;49.570;10.986;2023-05-27T06:43:16;99203.25;;;13.88;57.81
52137;BME280;69622;49.570;10.986;2023-05-27T06:46:18;99200.75;;;13.87;56.69
52137;BME280;69622;49.570;10.986;2023-05-27T06:49:19;99198.84;;;14.24;55.72
52137;BME280;69622;49.570;10.986;2023-05-27T06:52:21;99201.22;;;14.27;56.43
52137;BME280;69622;49.570;10.986;2023-05-27T06:55:22;99195.03;;;14.39;55.51
52137;BME280;69622;49.570;10.986;2023-05-27T06:58:23;99191.03;;;14.57;54.51
52137;BME280;69622;49.570;10.986;2023-05-27T07:01:25;99197.09;;;14.58;53.61
52137;BME280;69622;49.570;10.986;2023-05-27T07:04:26;99192.91;;;14.66;53.32
52137;BME280;69622;49.570;10.986;2023-05-27T07:07:28;99196.94;;;14.82;53.90
52137;BME280;69622;49.570;10.986;2023-05-27T07:10:29;99194.75;;;15.09;50.86
52137;BME280;69622;49.570;10.986;2023-05-27T07:13:30;99195.59;;;15.10;51.51
52137;BME280;69622;49.570;10.986;2023-05-27T07:16:32;99195.19;;;15.14;50.59
52137;BME280;69622;49.570;10.986;2023-05-27T07:19:33;99198.56;;;15.16;50.39
52137;BME280;69622;49.570;10.986;2023-05-27T07:22:35;99197.16;;;15.01;50.81
52137;BME280;69622;49.570;10.986;2023-05-27T07:25:36;99192.78;;;15.34;50.16
52137;BME280;69622;49.570;10.986;2023-05-27T07:28:38;99198.06;;;15.54;50.31
52137;BME280;69622;49.570;10.986;2023-05-27T07:31:39;99189.94;;;15.57;49.50
52137;BME280;69622;49.570;10.986;2023-05-27T07:34:41;99193.91;;;15.52;50.12
52137;BME280;69622;49.570;10.986;2023-05-27T07:37:42;99196.50;;;15.63;49.63
52137;BME280;69622;49.570;10.986;2023-05-27T07:40:43;99184.75;;;15.78;50.22
52137;BME280;69622;49.570;10.986;2023-05-27T07:43:45;99173.81;;;15.73;50.19
52137;BME280;69622;49.570;10.986;2023-05-27T07:46:46;99172.41;;;16.11;51.45
52137;BME280;69622;49.570;10.986;2023-05-27T07:49:49;99171.94;;;16.06;50.06
52137;BME280;69622;49.570;10.986;2023-05-27T07:52:51;99174.06;;;16.12;49.20
52137;BME280;69622;49.570;10.986;2023-05-27T07:55:52;99159.50;;;16.08;51.01
52137;BME280;69622;49.570;10.986;2023-05-27T07:58:53;99155.44;;;16.25;52.42
52137;BME280;69622;49.570;10.986;2023-05-27T08:01:55;99164.03;;;16.57;48.10
52137;BME280;69622;49.570;10.986;2023-05-27T08:04:56;99159.03;;;16.54;48.94
52137;BME280;69622;49.570;10.986;2023-05-27T08:07:58;99155.31;;;16.57;48.45
52137;BME280;69622;49.570;10.986;2023-05-27T08:10:59;99154.41;;;16.67;48.15
52137;BME280;69622;49.570;10.986;2023-05-27T08:14:01;99147.75;;;16.63;48.46
52137;BME280;69622;49.570;10.986;2023-05-27T08:17:02;99154.59;;;16.55;49.40
52137;BME280;69622;49.570;10.986;2023-05-27T08:20:04;99148.84;;;16.61;48.07
52137;BME280;69622;49.570;10.986;2023-05-27T08:23:07;99148.66;;;16.83;48.96
52137;BME280;69622;49.570;10.986;2023-05-27T08:26:08;99143.69;;;16.90;48.78
52137;BME280;69622;49.570;10.986;2023-05-27T08:29:10;99140.53;;;17.05;46.78
52137;BME280;69622;49.570;10.986;2023-05-27T08:32:12;99140.13;;;17.10;47.38
52137;BME280;69622;49.570;10.986;2023-05-27T08:35:13;99141.91;;;17.19;47.63
52137;BME280;69622;49.570;10.986;2023-05-27T08:38:15;99132.66;;;17.25;48.05
52137;BME280;69622;49.570;10.986;2023-05-27T08:41:16;99135.41;;;17.43;47.67
52137;BME280;69622;49.570;10.986;2023-05-27T08:44:18;99135.72;;;17.40;47.17
52137;BME280;69622;49.570;10.986;2023-05-27T08:47:22;99127.53;;;17.33;48.93
52137;BME280;69622;49.570;10.986;2023-05-27T08:50:23;99125.56;;;17.64;46.57
52137;BME280;69622;49.570;10.986;2023-05-27T08:53:25;99129.59;;;17.78;46.28
52137;BME280;69622;49.570;10.986;2023-05-27T08:56:27;99127.09;;;17.86;46.66
52137;BME280;69622;49.570;10.986;2023-05-27T08:59:30;99134.31;;;17.84;47.02
52137;BME280;69622;49.570;10.986;2023-05-27T09:02:32;99131.78;;;17.82;46.44
52137;BME280;69622;49.570;10.986;2023-05-27T09:05:34;99130.19;;;18.09;45.49
52137;BME280;69622;49.570;10.986;2023-05-27T09:08:35;99126.56;;;18.19;45.18
52137;BME280;69622;49.570;10.986;2023-05-27T09:11:51;99123.53;;;18.14;45.33
52137;BME280;69622;49.570;10.986;2023-05-27T09:14:53;99117.84;;;18.19;44.61
52137;BME280;69622;49.570;10.986;2023-05-27T09:17:57;99122.88;;;18.03;44.46
52137;BME280;69622;49.570;10.986;2023-05-27T09:21:03;99130.09;;;18.01;43.92
52137;BME280;69622;49.570;10.986;2023-05-27T09:24:05;99115.66;;;18.42;44.24
52137;BME280;69622;49.570;10.986;2023-05-27T09:27:06;99109.50;;;18.23;43.05
52137;BME280;69622;49.570;10.986;2023-05-27T09:30:10;99109.56;;;18.41;44.96
52137;BME280;69622;49.570;10.986;2023-05-27T09:33:12;99112.75;;;18.72;41.09
52137;BME280;69622;49.570;10.986;2023-05-27T09:36:14;99114.88;;;18.59;43.35
52137;BME280;69622;49.570;10.986;2023-05-27T09:39:21;99105.66;;;18.45;43.66
52137;BME280;69622;49.570;10.986;2023-05-27T09:42:23;99098.38;;;18.57;42.16
52137;BME280;69622;49.570;10.986;2023-05-27T09:45:24;99096.44;;;18.59;42.81
52137;BME280;69622;49.570;10.986;2023-05-27T09:48:29;99096.72;;;18.56;43.28
52137;BME280;69622;49.570;10.986;2023-05-27T09:51:31;99090.16;;;18.42;42.60
52137;BME280;69622;49.570;10.986;2023-05-27T09:54:33;99078.16;;;18.58;42.72
52137;BME280;69622;49.570;10.986;2023-05-27T09:57:36;99082.72;;;18.65;42.83
52137;BME280;69622;49.570;10.986;2023-05-27T10:00:38;99088.22;;;19.07;41.43
52137;BME280;69622;49.570;10.986;2023-05-27T10:03:42;99077.31;;;18.84;42.64
52137;BME280;69622;49.570;10.986;2023-05-27T10:06:45;99076.53;;;18.74;42.27
52137;BME280;69622;49.570;10.986;2023-05-27T10:09:47;99080.03;;;19.10;41.52
52137;BME280;69622;49.570;10.986;2023-05-27T10:12:50;99070.91;;;19.05;41.03
52137;BME280;69622;49.570;10.986;2023-05-27T10:15:52;99073.50;;;18.97;40.82
52137;BME280;69622;49.570;10.986;2023-05-27T10:18:54;99059.09;;;18.91;42.16
52137;BME280;69622;49.570;10.986;2023-05-27T10:21:56;99058.09;;;19.28;42.65
52137;BME280;69622;49.570;10.986;2023-05-27T10:25:11;99053.00;;;19.26;41.23
52137;BME280;69622;49.570;10.986;2023-05-27T10:28:23;99049.63;;;19.60;40.40
52137;BME280;69622;49.570;10.986;2023-05-27T10:31:29;99047.75;;;19.34;39.97
52137;BME280;69622;49.570;10.986;2023-05-27T10:34:37;99037.41;;;19.59;41.95
52137;BME280;69622;49.570;10.986;2023-05-27T10:37:38;99042.88;;;19.65;41.37
52137;BME280;69622;49.570;10.986;2023-05-27T10:40:42;99035.88;;;19.30;41.91
52137;BME280;69622;49.570;10.986;2023-05-27T10:43:54;99027.97;;;19.56;41.58
52137;BME280;69622;49.570;10.986;2023-05-27T10:47:02;99039.69;;;19.36;41.28
52137;BME280;69622;49.570;10.986;2023-05-27T10:50:13;99032.78;;;19.87;39.64
52137;BME280;69622;49.570;10.986;2023-05-27T10:53:16;99029.53;;;19.93;40.30
52137;BME280;69622;49.570;10.986;2023-05-27T10:56:17;99035.56;;;19.85;39.53
52137;BME280;69622;49.570;10.986;2023-05-27T10:59:20;99027.97;;;19.82;39.12
52137;BME280;69622;49.570;10.986;2023-05-27T11:02:28;99024.44;;;19.99;40.81
52137;BME280;69622;49.570;10.986;2023-05-27T11:05:31;99029.13;;;19.80;40.43
52137;BME280;69622;49.570;10.986;2023-05-27T11:08:33;99019.69;;;20.11;40.22
52137;BME280;69622;49.570;10.986;2023-05-27T11:11:34;99019.63;;;20.37;38.96
52137;BME280;69622;49.570;10.986;2023-05-27T11:14:37;99017.81;;;20.38;39.63
52137;BME280;69622;49.570;10.986;2023-05-27T11:17:39;99018.09;;;20.34;39.47
52137;BME280;69622;49.570;10.986;2023-05-27T11:20:40;99018.22;;;20.59;37.49
52137;BME280;69622;49.570;10.986;2023-05-27T11:23:45;99012.97;;;20.67;38.00
52137;BME280;69622;49.570;10.986;2023-05-27T11:26:47;99013.47;;;20.87;37.46
52137;BME280;69622;49.570;10.986;2023-05-27T11:29:50;99008.53;;;21.00;38.01
52137;BME280;69622;49.570;10.986;2023-05-27T11:32:52;99006.16;;;20.56;38.32
52137;BME280;69622;49.570;10.986;2023-05-27T11:36:02;99004.34;;;21.14;38.23
52137;BME280;69622;49.570;10.986;2023-05-27T11:39:04;98989.84;;;21.02;36.82
52137;BME280;69622;49.570;10.986;2023-05-27T11:42:05;98990.31;;;20.97;37.66
52137;BME280;69622;49.570;10.986;2023-05-27T11:45:19;98984.03;;;21.47;35.99
52137;BME280;69622;49.570;10.986;2023-05-27T11:48:21;98987.34;;;21.49;36.09
52137;BME280;69622;49.570;10.986;2023-05-27T11:51:26;98980.59;;;21.06;36.68
52137;BME280;69622;49.570;10.986;2023-05-27T11:54:29;98976.94;;;21.07;37.89
52137;BME280;69622;49.570;10.986;2023-05-27T11:57:32;98975.13;;;21.07;37.71
52137;BME280;69622;49.570;10.986;2023-05-27T12:00:34;98968.50;;;21.28;38.63
52137;BME280;69622;49.570;10.986;2023-05-27T12:03:36;98962.66;;;21.57;36.81
52137;BME280;69622;49.570;10.986;2023-05-27T12:06:37;98957.13;;;20.94;36.86
52137;BME280;69622;49.570;10.986;2023-05-27T12:09:39;98953.94;;;21.40;37.40
52137;BME280;69622;49.570;10.986;2023-05-27T12:12:40;98941.84;;;21.53;35.28
52137;BME280;69622;49.570;10.986;2023-05-27T12:15:45;98933.75;;;21.86;34.81
52137;BME280;69622;49.570;10.986;2023-05-27T12:18:46;98935.56;;;21.94;35.44
52137;BME280;69622;49.570;10.986;2023-05-27T12:21:48;98930.78;;;22.20;36.06
52137;BME280;69622;49.570;10.986;2023-05-27T12:24:49;98930.03;;;22.03;34.86
52137;BME280;69622;49.570;10.986;2023-05-27T12:27:52;98926.28;;;22.52;34.11
52137;BME280;69622;49.570;10.986;2023-05-27T12:30:54;98924.28;;;22.77;35.45
52137;BME280;69622;49.570;10.986;2023-05-27T12:33:56;98923.16;;;22.25;34.83
52137;BME280;69622;49.570;10.986;2023-05-27T12:36:57;98926.13;;;21.91;35.10
52137;BME280;69622;49.570;10.986;2023-05-27T12:39:58;98917.03;;;22.48;33.90
52137;BME280;69622;49.570;10.986;2023-05-27T12:43:00;98918.09;;;22.61;33.68
52137;BME280;69622;49.570;10.986;2023-05-27T12:46:04;98917.03;;;22.93;33.48
52137;BME280;69622;49.570;10.986;2023-05-27T12:49:05;98910.44;;;22.89;32.78
52137;BME280;69622;49.570;10.986;2023-05-27T12:52:08;98906.78;;;22.90;32.35
52137;BME280;69622;49.570;10.986;2023-05-27T12:55:10;98909.00;;;22.79;32.69
52137;BME280;69622;49.570;10.986;2023-05-27T12:58:11;98899.88;;;22.81;32.98
52137;BME280;69622;49.570;10.986;2023-05-27T13:01:12;98894.47;;;22.75;32.71
52137;BME280;69622;49.570;10.986;2023-05-27T13:04:14;98896.66;;;23.38;32.41
52137;BME280;69622;49.570;10.986;2023-05-27T13:07:16;98882.13;;;23.05;29.88
52137;BME280;69622;49.570;10.986;2023-05-27T13:10:17;98871.22;;;22.99;31.28
52137;BME280;69622;49.570;10.986;2023-05-27T13:13:22;98880.56;;;23.54;30.78
52137;BME280;69622;49.570;10.986;2023-05-27T13:16:24;98881.28;;;23.48;30.75
52137;BME280;69622;49.570;10.986;2023-05-27T13:19:25;98876.97;;;23.77;30.77
52137;BME280;69622;49.570;10.986;2023-05-27T13:22:27;98873.09;;;23.79;31.22
52137;BME280;69622;49.570;10.986;2023-05-27T13:25:29;98866.75;;;23.29;31.15
52137;BME280;69622;49.570;10.986;2023-05-27T13:28:31;98868.50;;;23.37;31.04
52137;BME280;69622;49.570;10.986;2023-05-27T13:31:32;98862.34;;;24.02;31.60
52137;BME280;69622;49.570;10.986;2023-05-27T13:34:34;98851.19;;;23.92;31.17
52137;BME280;69622;49.570;10.986;2023-05-27T13:37:35;98852.94;;;24.21;31.13
52137;BME280;69622;49.570;10.986;2023-05-27T13:40:37;98847.38;;;23.80;29.80
52137;BME280;69622;49.570;10.986;2023-05-27T13:43:38;98845.16;;;24.41;31.39
52137;BME280;69622;49.570;10.986;2023-05-27T13:46:40;98847.72;;;24.56;29.20
52137;BME280;69622;49.570;10.986;2023-05-27T13:49:41;98847.31;;;24.52;29.31
52137;BME280;69622;49.570;10.986;2023-05-27T13:52:43;98835.69;;;24.32;29.72
52137;BME280;69622;49.570;10.986;2023-05-27T13:55:46;98829.63;;;24.66;29.90
52137;BME280;69622;49.570;10.986;2023-05-27T13:58:48;98832.13;;;25.02;28.21
52137;BME280;69622;49.570;10.986;2023-05-27T14:01:50;98837.97;;;24.91;28.41
52137;BME280;69622;49.570;10.986;2023-05-27T14:04:51;98833.06;;;25.22;28.20
52137;BME280;69622;49.570;10.986;2023-05-27T14:07:53;98823.97;;;25.45;27.87
52137;BME280;69622;49.570;10.986;2023-05-27T14:10:54;98826.84;;;25.08;29.53
52137;BME280;69622;49.570;10.986;2023-05-27T14:13:58;98819.00;;;24.23;30.37
52137;BME280;69622;49.570;10.986;2023-05-27T14:17:00;98813.09;;;24.77;29.96
52137;BME280;69622;49.570;10.986;2023-05-27T14:20:02;98807.03;;;24.83;29.23
52137;BME280;69622;49.570;10.986;2023-05-27T14:23:04;98805.34;;;24.47;29.87
52137;BME280;69622;49.570;10.986;2023-05-27T14:26:06;98801.41;;;24.99;29.71
52137;BME280;69622;49.570;10.986;2023-05-27T14:29:07;98796.00;;;24.86;29.82
52137;BME280;69622;49.570;10.986;2023-05-27T14:32:09;98792.13;;;24.89;28.89
52137;BME280;69622;49.570;10.986;2023-05-27T14:35:10;98785.84;;;24.96;29.18
52137;BME280;69622;49.570;10.986;2023-05-27T14:38:12;98781.19;;;24.77;28.18
52137;BME280;69622;49.570;10.986;2023-05-27T14:41:13;98780.44;;;25.24;26.21
52137;BME280;69622;49.570;10.986;2023-05-27T14:44:15;98777.38;;;25.21;27.88
52137;BME280;69622;49.570;10.986;2023-05-27T14:47:16;98775.47;;;24.73;27.70
52137;BME280;69622;49.570;10.986;2023-05-27T14:50:19;98774.69;;;24.79;28.95
52137;BME280;69622;49.570;10.986;2023-05-27T14:53:21;98770.53;;;25.05;27.78
52137;BME280;69622;49.570;10.986;2023-05-27T14:56:22;98767.19;;;25.31;27.69
52137;BME280;69622;49.570;10.986;2023-05-27T14:59:24;98773.63;;;25.56;26.60
52137;BME280;69622;49.570;10.986;2023-05-27T15:02:25;98772.59;;;25.03;27.29
52137;BME280;69622;49.570;10.986;2023-05-27T15:05:27;98776.25;;;25.43;27.64
52137;BME280;69622;49.570;10.986;2023-05-27T15:08:28;98770.75;;;25.03;28.30
52137;BME280;69622;49.570;10.986;2023-05-27T15:11:30;98764.53;;;25.37;26.61
52137;BME280;69622;49.570;10.986;2023-05-27T15:14:32;98770.41;;;25.13;26.69
52137;BME280;69622;49.570;10.986;2023-05-27T15:17:33;98772.31;;;25.26;26.61
52137;BME280;69622;49.570;10.986;2023-05-27T15:20:36;98763.84;;;24.81;27.48
52137;BME280;69622;49.570;10.986;2023-05-27T15:23:38;98754.31;;;24.93;27.56
52137;BME280;69622;49.570;10.986;2023-05-27T15:26:39;98751.47;;;24.95;28.02
52137;BME280;69622;49.570;10.986;2023-05-27T15:29:41;98764.31;;;25.32;27.78
52137;BME280;69622;49.570;10.986;2023-05-27T15:32:42;98757.03;;;24.72;27.78
52137;BME280;69622;49.570;10.986;2023-05-27T15:35:44;98755.06;;;25.15;28.03
52137;BME280;69622;49.570;10.986;2023-05-27T15:38:45;98750.16;;;24.84;29.05
52137;BME280;69622;49.570;10.986;2023-05-27T15:41:47;98759.78;;;25.20;27.07
52137;BME280;69622;49.570;10.986;2023-05-27T15:44:48;98756.09;;;24.79;28.04
52137;BME280;69622;49.570;10.986;2023-05-27T15:47:49;98743.00;;;24.85;28.55
52137;BME280;69622;49.570;10.986;2023-05-27T15:50:55;98742.88;;;24.30;28.55
52137;BME280;69622;49.570;10.986;2023-05-27T15:53:57;98737.41;;;24.73;28.23